sensor_id;sensor_type;location;lat;lon;timestamp;P1;durP1;ratioP1;P2;durP2;ratioP2
12141;SDS011;6134;59.284;18.022;2022-08-21T00:01:06;3.72;;;1.40;;
12141;SDS011;6134;59.284;18.022;2022-08-21T00:03:37;4.50;;;1.55;;
12141;SDS011;6134;59.284;18.022;2022-08-21T00:06:06;2.92;;;1.70;;
12141;SDS011;6134;59.284;18.022;2022-08-21T00:08:40;4.07;;;1.38;;
12141;SDS011;6134;59.284;18.022;2022-08-21T00:11:09;3.85;;;1.73;;
12141;SDS011;6134;59.284;18.022;2022-08-21T00:13:37;6.03;;;1.75;;
12141;SDS011;6134;59.284;18.022;2022-08-21T00:16:06;3.38;;;1.15;;
12141;SDS011;6134;59.284;18.022;2022-08-21T00:18:34;5.10;;;1.33;;
12141;SDS011;6134;59.284;18.022;2022-08-21T00:21:03;5.70;;;1.45;;
12141;SDS011;6134;59.284;18.022;2022-08-21T00:23:32;3.70;;;1.50;;
12141;SDS011;6134;59.284;18.022;2022-08-21T00:26:03;2.95;;;1.40;;
12141;SDS011;6134;59.284;18.022;2022-08-21T00:28:31;2.33;;;1.55;;
12141;SDS011;6134;59.284;18.022;2022-08-21T00:31:00;4.47;;;1.40;;
12141;SDS011;6134;59.284;18.022;2022-08-21T00:33:30;3.47;;;1.38;;
12141;SDS011;6134;59.284;18.022;2022-08-21T00:35:58;4.15;;;1.45;;
12141;SDS011;6134;59.284;18.022;2022-08-21T00:38:27;3.30;;;1.20;;
12141;SDS011;6134;59.284;18.022;2022-08-21T00:40:57;3.35;;;1.13;;
12141;SDS011;6134;59.284;18.022;2022-08-21T00:43:47;4.53;;;1.52;;
12141;SDS011;6134;59.284;18.022;2022-08-21T00:46:16;4.50;;;1.23;;
12141;SDS011;6134;59.284;18.022;2022-08-21T00:48:45;5.43;;;1.70;;
12141;SDS011;6134;59.284;18.022;2022-08-21T00:51:14;3.28;;;1.38;;
12141;SDS011;6134;59.284;18.022;2022-08-21T00:53:44;4.47;;;1.60;;
12141;SDS011;6134;59.284;18.022;2022-08-21T00:56:19;2.60;;;1.35;;
12141;SDS011;6134;59.284;18.022;2022-08-21T00:58:50;3.90;;;1.30;;
12141;SDS011;6134;59.284;18.022;2022-08-21T01:01:20;4.03;;;1.40;;
12141;SDS011;6134;59.284;18.022;2022-08-21T01:03:49;4.88;;;1.38;;
12141;SDS011;6134;59.284;18.022;2022-08-21T01:06:18;4.03;;;1.17;;
12141;SDS011;6134;59.284;18.022;2022-08-21T01:08:46;5.82;;;1.80;;
12141;SDS011;6134;59.284;18.022;2022-08-21T01:11:15;5.03;;;1.60;;
12141;SDS011;6134;59.284;18.022;2022-08-21T01:13:43;3.90;;;1.40;;
12141;SDS011;6134;59.284;18.022;2022-08-21T01:16:15;2.55;;;1.30;;
12141;SDS011;6134;59.284;18.022;2022-08-21T01:18:45;3.85;;;1.42;;
12141;SDS011;6134;59.284;18.022;2022-08-21T01:21:16;3.25;;;1.30;;
12141;SDS011;6134;59.284;18.022;2022-08-21T01:23:46;2.70;;;1.73;;
12141;SDS011;6134;59.284;18.022;2022-08-21T01:26:15;4.15;;;1.60;;
12141;SDS011;6134;59.284;18.022;2022-08-21T01:28:45;3.05;;;1.30;;
12141;SDS011;6134;59.284;18.022;2022-08-21T01:31:15;3.55;;;1.30;;
12141;SDS011;6134;59.284;18.022;2022-08-21T01:33:51;3.70;;;1.30;;
12141;SDS011;6134;59.284;18.022;2022-08-21T01:36:21;3.60;;;1.50;;
12141;SDS011;6134;59.284;18.022;2022-08-21T01:38:50;3.50;;;1.58;;
12141;SDS011;6134;59.284;18.022;2022-08-21T01:41:19;2.25;;;1.20;;
12141;SDS011;6134;59.284;18.022;2022-08-21T01:43:47;4.10;;;1.35;;
12141;SDS011;6134;59.284;18.022;2022-08-21T01:46:16;5.75;;;1.50;;
12141;SDS011;6134;59.284;18.022;2022-08-21T01:48:45;5.28;;;1.70;;
12141;SDS011;6134;59.284;18.022;2022-08-21T01:51:14;4.45;;;1.40;;
12141;SDS011;6134;59.284;18.022;2022-08-21T01:53:44;3.50;;;1.30;;
12141;SDS011;6134;59.284;18.022;2022-08-21T01:56:14;5.65;;;2.63;;
12141;SDS011;6134;59.284;18.022;2022-08-21T01:58:44;3.65;;;1.60;;
12141;SDS011;6134;59.284;18.022;2022-08-21T02:01:13;5.10;;;1.50;;
12141;SDS011;6134;59.284;18.022;2022-08-21T02:03:42;4.88;;;1.38;;
12141;SDS011;6134;59.284;18.022;2022-08-21T02:06:12;5.32;;;1.60;;
12141;SDS011;6134;59.284;18.022;2022-08-21T02:08:45;5.30;;;1.60;;
12141;SDS011;6134;59.284;18.022;2022-08-21T02:11:14;7.00;;;1.65;;
12141;SDS011;6134;59.284;18.022;2022-08-21T02:13:43;3.67;;;1.52;;
12141;SDS011;6134;59.284;18.022;2022-08-21T02:16:11;5.80;;;1.70;;
12141;SDS011;6134;59.284;18.022;2022-08-21T02:18:44;5.57;;;1.55;;
12141;SDS011;6134;59.284;18.022;2022-08-21T02:21:13;4.60;;;1.70;;
12141;SDS011;6134;59.284;18.022;2022-08-21T02:23:41;3.67;;;1.25;;
12141;SDS011;6134;59.284;18.022;2022-08-21T02:26:11;4.72;;;1.70;;
12141;SDS011;6134;59.284;18.022;2022-08-21T02:28:40;5.57;;;1.67;;
12141;SDS011;6134;59.284;18.022;2022-08-21T02:31:09;4.50;;;1.98;;
12141;SDS011;6134;59.284;18.022;2022-08-21T02:33:37;6.00;;;1.52;;
12141;SDS011;6134;59.284;18.022;2022-08-21T02:36:06;5.18;;;1.80;;
12141;SDS011;6134;59.284;18.022;2022-08-21T02:38:35;3.28;;;1.80;;
12141;SDS011;6134;59.284;18.022;2022-08-21T02:41:05;6.18;;;1.50;;
12141;SDS011;6134;59.284;18.022;2022-08-21T02:43:35;3.28;;;1.50;;
12141;SDS011;6134;59.284;18.022;2022-08-21T02:46:04;2.38;;;1.50;;
12141;SDS011;6134;59.284;18.022;2022-08-21T02:48:33;3.80;;;1.60;;
12141;SDS011;6134;59.284;18.022;2022-08-21T02:51:03;4.53;;;1.60;;
12141;SDS011;6134;59.284;18.022;2022-08-21T02:53:32;4.63;;;1.63;;
12141;SDS011;6134;59.284;18.022;2022-08-21T02:56:02;4.50;;;1.60;;
12141;SDS011;6134;59.284;18.022;2022-08-21T02:58:31;4.47;;;1.77;;
12141;SDS011;6134;59.284;18.022;2022-08-21T03:01:02;4.18;;;2.17;;
12141;SDS011;6134;59.284;18.022;2022-08-21T03:03:30;4.53;;;1.65;;
12141;SDS011;6134;59.284;18.022;2022-08-21T03:06:02;3.60;;;1.65;;
12141;SDS011;6134;59.284;18.022;2022-08-21T03:08:30;4.65;;;1.55;;
12141;SDS011;6134;59.284;18.022;2022-08-21T03:10:59;4.43;;;1.67;;
12141;SDS011;6134;59.284;18.022;2022-08-21T03:13:27;6.47;;;1.90;;
12141;SDS011;6134;59.284;18.022;2022-08-21T03:15:56;4.50;;;1.77;;
12141;SDS011;6134;59.284;18.022;2022-08-21T03:18:26;8.05;;;2.08;;
12141;SDS011;6134;59.284;18.022;2022-08-21T03:20:55;5.40;;;1.90;;
12141;SDS011;6134;59.284;18.022;2022-08-21T03:23:23;3.63;;;1.70;;
12141;SDS011;6134;59.284;18.022;2022-08-21T03:25:58;5.20;;;1.85;;
12141;SDS011;6134;59.284;18.022;2022-08-21T03:28:26;5.38;;;2.35;;
12141;SDS011;6134;59.284;18.022;2022-08-21T03:30:55;3.50;;;2.20;;
12141;SDS011;6134;59.284;18.022;2022-08-21T03:33:23;5.38;;;1.90;;
12141;SDS011;6134;59.284;18.022;2022-08-21T03:35:57;7.95;;;1.83;;
12141;SDS011;6134;59.284;18.022;2022-08-21T03:38:27;3.85;;;1.70;;
12141;SDS011;6134;59.284;18.022;2022-08-21T03:40:56;5.07;;;1.77;;
12141;SDS011;6134;59.284;18.022;2022-08-21T03:43:25;3.35;;;1.90;;
12141;SDS011;6134;59.284;18.022;2022-08-21T03:45:57;2.78;;;1.60;;
12141;SDS011;6134;59.284;18.022;2022-08-21T03:48:26;4.43;;;1.50;;
12141;SDS011;6134;59.284;18.022;2022-08-21T03:50:54;3.08;;;1.45;;
12141;SDS011;6134;59.284;18.022;2022-08-21T03:53:24;4.70;;;1.80;;
12141;SDS011;6134;59.284;18.022;2022-08-21T03:55:53;8.25;;;2.15;;
12141;SDS011;6134;59.284;18.022;2022-08-21T03:58:22;7.90;;;2.08;;
12141;SDS011;6134;59.284;18.022;2022-08-21T04:00:51;7.25;;;1.73;;
12141;SDS011;6134;59.284;18.022;2022-08-21T04:03:21;5.30;;;2.10;;
12141;SDS011;6134;59.284;18.022;2022-08-21T04:05:50;3.55;;;1.67;;
12141;SDS011;6134;59.284;18.022;2022-08-21T04:08:18;5.05;;;1.58;;
12141;SDS011;6134;59.284;18.022;2022-08-21T04:10:50;4.00;;;1.85;;
12141;SDS011;6134;59.284;18.022;2022-08-21T04:13:19;4.03;;;1.85;;
12141;SDS011;6134;59.284;18.022;2022-08-21T04:15:48;2.88;;;1.65;;
12141;SDS011;6134;59.284;18.022;2022-08-21T04:18:16;5.00;;;1.80;;
12141;SDS011;6134;59.284;18.022;2022-08-21T04:20:45;3.92;;;1.77;;
12141;SDS011;6134;59.284;18.022;2022-08-21T04:23:16;2.35;;;1.45;;
12141;SDS011;6134;59.284;18.022;2022-08-21T04:25:51;3.25;;;1.65;;
12141;SDS011;6134;59.284;18.022;2022-08-21T04:28:20;4.00;;;1.80;;
12141;SDS011;6134;59.284;18.022;2022-08-21T04:30:54;7.35;;;2.03;;
12141;SDS011;6134;59.284;18.022;2022-08-21T04:33:23;5.28;;;1.70;;
12141;SDS011;6134;59.284;18.022;2022-08-21T04:35:51;4.50;;;1.98;;
12141;SDS011;6134;59.284;18.022;2022-08-21T04:38:20;7.88;;;1.90;;
12141;SDS011;6134;59.284;18.022;2022-08-21T04:40:49;3.95;;;1.92;;
12141;SDS011;6134;59.284;18.022;2022-08-21T04:43:19;3.08;;;1.60;;
12141;SDS011;6134;59.284;18.022;2022-08-21T04:45:50;6.55;;;1.90;;
12141;SDS011;6134;59.284;18.022;2022-08-21T04:48:19;6.10;;;2.22;;
12141;SDS011;6134;59.284;18.022;2022-08-21T04:50:49;6.70;;;2.05;;
12141;SDS011;6134;59.284;18.022;2022-08-21T04:53:19;5.97;;;1.65;;
12141;SDS011;6134;59.284;18.022;2022-08-21T04:55:48;5.43;;;1.70;;
12141;SDS011;6134;59.284;18.022;2022-08-21T04:58:20;6.57;;;1.70;;
12141;SDS011;6134;59.284;18.022;2022-08-21T05:00:50;6.32;;;1.70;;
12141;SDS011;6134;59.284;18.022;2022-08-21T05:03:20;4.05;;;1.95;;
12141;SDS011;6134;59.284;18.022;2022-08-21T05:05:48;4.88;;;1.70;;
12141;SDS011;6134;59.284;18.022;2022-08-21T05:08:18;4.97;;;1.92;;
12141;SDS011;6134;59.284;18.022;2022-08-21T05:10:47;6.65;;;2.08;;
12141;SDS011;6134;59.284;18.022;2022-08-21T05:13:16;4.45;;;1.95;;
12141;SDS011;6134;59.284;18.022;2022-08-21T05:15:46;5.32;;;1.67;;
12141;SDS011;6134;59.284;18.022;2022-08-21T05:18:15;4.57;;;2.17;;
12141;SDS011;6134;59.284;18.022;2022-08-21T05:20:43;5.85;;;1.98;;
12141;SDS011;6134;59.284;18.022;2022-08-21T05:23:12;5.97;;;1.85;;
12141;SDS011;6134;59.284;18.022;2022-08-21T05:25:41;7.07;;;1.95;;
12141;SDS011;6134;59.284;18.022;2022-08-21T05:28:11;8.45;;;1.80;;
12141;SDS011;6134;59.284;18.022;2022-08-21T05:30:39;6.43;;;1.88;;
12141;SDS011;6134;59.284;18.022;2022-08-21T05:33:09;4.28;;;1.90;;
12141;SDS011;6134;59.284;18.022;2022-08-21T05:35:38;5.28;;;2.08;;
12141;SDS011;6134;59.284;18.022;2022-08-21T05:38:07;5.55;;;1.83;;
12141;SDS011;6134;59.284;18.022;2022-08-21T05:40:43;6.82;;;1.83;;
12141;SDS011;6134;59.284;18.022;2022-08-21T05:43:12;8.65;;;2.30;;
12141;SDS011;6134;59.284;18.022;2022-08-21T05:45:40;3.85;;;1.90;;
12141;SDS011;6134;59.284;18.022;2022-08-21T05:48:12;6.53;;;2.40;;
12141;SDS011;6134;59.284;18.022;2022-08-21T05:50:41;5.47;;;1.95;;
12141;SDS011;6134;59.284;18.022;2022-08-21T05:53:10;6.45;;;2.10;;
12141;SDS011;6134;59.284;18.022;2022-08-21T05:55:39;4.35;;;1.98;;
12141;SDS011;6134;59.284;18.022;2022-08-21T05:58:12;9.90;;;2.53;;
12141;SDS011;6134;59.284;18.022;2022-08-21T06:00:40;9.35;;;2.03;;
12141;SDS011;6134;59.284;18.022;2022-08-21T06:03:13;8.52;;;2.20;;
12141;SDS011;6134;59.284;18.022;2022-08-21T06:05:43;7.05;;;2.00;;
12141;SDS011;6134;59.284;18.022;2022-08-21T06:08:12;5.90;;;2.25;;
12141;SDS011;6134;59.284;18.022;2022-08-21T06:10:40;5.25;;;2.08;;
12141;SDS011;6134;59.284;18.022;2022-08-21T06:13:09;4.43;;;1.98;;
12141;SDS011;6134;59.284;18.022;2022-08-21T06:15:38;6.05;;;2.10;;
12141;SDS011;6134;59.284;18.022;2022-08-21T06:18:07;3.83;;;1.67;;
12141;SDS011;6134;59.284;18.022;2022-08-21T06:20:36;9.90;;;2.35;;
12141;SDS011;6134;59.284;18.022;2022-08-21T06:23:05;5.57;;;2.20;;
12141;SDS011;6134;59.284;18.022;2022-08-21T06:25:34;8.05;;;2.15;;
12141;SDS011;6134;59.284;18.022;2022-08-21T06:28:03;6.78;;;2.33;;
12141;SDS011;6134;59.284;18.022;2022-08-21T06:30:31;7.57;;;1.92;;
12141;SDS011;6134;59.284;18.022;2022-08-21T06:33:00;6.18;;;1.60;;
12141;SDS011;6134;59.284;18.022;2022-08-21T06:35:29;5.85;;;1.80;;
12141;SDS011;6134;59.284;18.022;2022-08-21T06:37:59;4.10;;;1.80;;
12141;SDS011;6134;59.284;18.022;2022-08-21T06:40:28;6.03;;;2.03;;
12141;SDS011;6134;59.284;18.022;2022-08-21T06:43:04;5.85;;;1.90;;
12141;SDS011;6134;59.284;18.022;2022-08-21T06:45:34;7.22;;;2.35;;
12141;SDS011;6134;59.284;18.022;2022-08-21T06:48:02;7.30;;;2.13;;
12141;SDS011;6134;59.284;18.022;2022-08-21T06:50:31;5.70;;;1.85;;
12141;SDS011;6134;59.284;18.022;2022-08-21T06:53:02;6.93;;;2.10;;
12141;SDS011;6134;59.284;18.022;2022-08-21T06:55:31;6.90;;;1.90;;
12141;SDS011;6134;59.284;18.022;2022-08-21T06:58:00;6.40;;;1.85;;
12141;SDS011;6134;59.284;18.022;2022-08-21T07:00:29;7.60;;;2.03;;
12141;SDS011;6134;59.284;18.022;2022-08-21T07:02:57;4.85;;;2.00;;
12141;SDS011;6134;59.284;18.022;2022-08-21T07:05:26;6.35;;;2.10;;
12141;SDS011;6134;59.284;18.022;2022-08-21T07:07:54;6.15;;;1.90;;
12141;SDS011;6134;59.284;18.022;2022-08-21T07:10:24;5.68;;;2.10;;
12141;SDS011;6134;59.284;18.022;2022-08-21T07:12:53;5.18;;;2.00;;
12141;SDS011;6134;59.284;18.022;2022-08-21T07:15:26;5.65;;;2.22;;
12141;SDS011;6134;59.284;18.022;2022-08-21T07:17:55;9.40;;;2.03;;
12141;SDS011;6134;59.284;18.022;2022-08-21T07:20:24;6.63;;;1.98;;
12141;SDS011;6134;59.284;18.022;2022-08-21T07:22:53;7.57;;;2.13;;
12141;SDS011;6134;59.284;18.022;2022-08-21T07:25:22;5.68;;;2.00;;
12141;SDS011;6134;59.284;18.022;2022-08-21T07:27:52;4.35;;;1.77;;
12141;SDS011;6134;59.284;18.022;2022-08-21T07:30:20;7.70;;;2.10;;
12141;SDS011;6134;59.284;18.022;2022-08-21T07:32:49;10.95;;;2.50;;
12141;SDS011;6134;59.284;18.022;2022-08-21T07:35:18;7.35;;;2.22;;
12141;SDS011;6134;59.284;18.022;2022-08-21T07:37:47;8.32;;;2.30;;
12141;SDS011;6134;59.284;18.022;2022-08-21T07:40:16;7.75;;;1.83;;
12141;SDS011;6134;59.284;18.022;2022-08-21T07:42:45;6.88;;;1.90;;
12141;SDS011;6134;59.284;18.022;2022-08-21T07:45:18;4.88;;;1.88;;
12141;SDS011;6134;59.284;18.022;2022-08-21T07:47:47;4.97;;;2.35;;
12141;SDS011;6134;59.284;18.022;2022-08-21T07:50:22;6.75;;;1.90;;
12141;SDS011;6134;59.284;18.022;2022-08-21T07:52:51;7.68;;;2.53;;
12141;SDS011;6134;59.284;18.022;2022-08-21T07:55:20;7.50;;;2.00;;
12141;SDS011;6134;59.284;18.022;2022-08-21T07:57:49;6.35;;;1.75;;
12141;SDS011;6134;59.284;18.022;2022-08-21T08:00:20;3.50;;;1.75;;
12141;SDS011;6134;59.284;18.022;2022-08-21T08:02:50;3.85;;;1.88;;
12141;SDS011;6134;59.284;18.022;2022-08-21T08:05:20;5.03;;;1.58;;
12141;SDS011;6134;59.284;18.022;2022-08-21T08:07:49;6.20;;;1.95;;
12141;SDS011;6134;59.284;18.022;2022-08-21T08:10:17;7.38;;;2.05;;
12141;SDS011;6134;59.284;18.022;2022-08-21T08:12:47;5.03;;;2.00;;
12141;SDS011;6134;59.284;18.022;2022-08-21T08:15:18;6.53;;;1.98;;
12141;SDS011;6134;59.284;18.022;2022-08-21T08:17:48;3.15;;;1.80;;
12141;SDS011;6134;59.284;18.022;2022-08-21T08:20:17;3.95;;;1.73;;
12141;SDS011;6134;59.284;18.022;2022-08-21T08:22:46;8.60;;;2.13;;
12141;SDS011;6134;59.284;18.022;2022-08-21T08:25:16;6.30;;;1.90;;
12141;SDS011;6134;59.284;18.022;2022-08-21T08:27:45;6.57;;;2.08;;
12141;SDS011;6134;59.284;18.022;2022-08-21T08:30:14;5.05;;;1.92;;
12141;SDS011;6134;59.284;18.022;2022-08-21T08:32:44;7.28;;;2.40;;
12141;SDS011;6134;59.284;18.022;2022-08-21T08:35:15;6.57;;;2.08;;
12141;SDS011;6134;59.284;18.022;2022-08-21T08:37:48;4.45;;;1.75;;
12141;SDS011;6134;59.284;18.022;2022-08-21T08:40:18;6.05;;;1.85;;
12141;SDS011;6134;59.284;18.022;2022-08-21T08:42:48;5.65;;;2.03;;
12141;SDS011;6134;59.284;18.022;2022-08-21T08:45:18;4.50;;;1.95;;
12141;SDS011;6134;59.284;18.022;2022-08-21T08:47:49;4.38;;;1.88;;
12141;SDS011;6134;59.284;18.022;2022-08-21T08:50:24;7.03;;;2.22;;
12141;SDS011;6134;59.284;18.022;2022-08-21T08:53:06;4.28;;;1.83;;
12141;SDS011;6134;59.284;18.022;2022-08-21T08:55:37;4.25;;;1.95;;
12141;SDS011;6134;59.284;18.022;2022-08-21T08:58:06;4.22;;;2.00;;
12141;SDS011;6134;59.284;18.022;2022-08-21T09:00:35;4.72;;;1.95;;
12141;SDS011;6134;59.284;18.022;2022-08-21T09:03:03;7.13;;;1.83;;
12141;SDS011;6134;59.284;18.022;2022-08-21T09:05:36;4.57;;;1.77;;
12141;SDS011;6134;59.284;18.022;2022-08-21T09:08:15;7.43;;;2.55;;
12141;SDS011;6134;59.284;18.022;2022-08-21T09:10:51;6.10;;;2.28;;
12141;SDS011;6134;59.284;18.022;2022-08-21T09:13:24;5.03;;;2.00;;
12141;SDS011;6134;59.284;18.022;2022-08-21T09:15:56;7.35;;;1.98;;
12141;SDS011;6134;59.284;18.022;2022-08-21T09:18:31;3.90;;;1.85;;
12141;SDS011;6134;59.284;18.022;2022-08-21T09:21:07;8.20;;;2.55;;
12141;SDS011;6134;59.284;18.022;2022-08-21T09:23:40;4.93;;;1.77;;
12141;SDS011;6134;59.284;18.022;2022-08-21T09:26:12;7.40;;;1.83;;
12141;SDS011;6134;59.284;18.022;2022-08-21T09:28:41;8.38;;;2.47;;
12141;SDS011;6134;59.284;18.022;2022-08-21T09:31:11;4.25;;;1.50;;
12141;SDS011;6134;59.284;18.022;2022-08-21T09:33:44;4.82;;;2.55;;
12141;SDS011;6134;59.284;18.022;2022-08-21T09:36:14;5.10;;;1.80;;
12141;SDS011;6134;59.284;18.022;2022-08-21T09:38:51;5.88;;;2.08;;
12141;SDS011;6134;59.284;18.022;2022-08-21T09:41:25;5.38;;;1.90;;
12141;SDS011;6134;59.284;18.022;2022-08-21T09:43:54;4.72;;;2.03;;
12141;SDS011;6134;59.284;18.022;2022-08-21T09:46:23;5.75;;;1.98;;
12141;SDS011;6134;59.284;18.022;2022-08-21T09:48:53;5.82;;;1.88;;
12141;SDS011;6134;59.284;18.022;2022-08-21T09:51:25;6.72;;;1.98;;
12141;SDS011;6134;59.284;18.022;2022-08-21T09:53:55;4.80;;;2.03;;
12141;SDS011;6134;59.284;18.022;2022-08-21T09:56:28;6.00;;;1.80;;
12141;SDS011;6134;59.284;18.022;2022-08-21T09:59:18;3.63;;;1.63;;
12141;SDS011;6134;59.284;18.022;2022-08-21T10:01:48;6.88;;;2.35;;
12141;SDS011;6134;59.284;18.022;2022-08-21T10:04:22;5.07;;;1.90;;
12141;SDS011;6134;59.284;18.022;2022-08-21T10:06:52;7.20;;;1.70;;
12141;SDS011;6134;59.284;18.022;2022-08-21T10:09:23;3.80;;;2.13;;
12141;SDS011;6134;59.284;18.022;2022-08-21T10:11:58;7.55;;;2.05;;
12141;SDS011;6134;59.284;18.022;2022-08-21T10:14:40;5.35;;;2.00;;
12141;SDS011;6134;59.284;18.022;2022-08-21T10:17:14;5.18;;;1.75;;
12141;SDS011;6134;59.284;18.022;2022-08-21T10:19:47;4.30;;;1.98;;
12141;SDS011;6134;59.284;18.022;2022-08-21T10:22:22;4.47;;;2.08;;
12141;SDS011;6134;59.284;18.022;2022-08-21T10:24:58;6.22;;;1.85;;
12141;SDS011;6134;59.284;18.022;2022-08-21T10:27:33;6.03;;;1.83;;
12141;SDS011;6134;59.284;18.022;2022-08-21T10:30:06;5.40;;;1.60;;
12141;SDS011;6134;59.284;18.022;2022-08-21T10:32:47;4.35;;;2.33;;
12141;SDS011;6134;59.284;18.022;2022-08-21T10:35:22;3.83;;;2.17;;
12141;SDS011;6134;59.284;18.022;2022-08-21T10:37:56;3.55;;;1.60;;
12141;SDS011;6134;59.284;18.022;2022-08-21T10:40:29;2.70;;;1.23;;
12141;SDS011;6134;59.284;18.022;2022-08-21T10:43:03;3.10;;;1.63;;
12141;SDS011;6134;59.284;18.022;2022-08-21T10:45:36;3.92;;;1.63;;
12141;SDS011;6134;59.284;18.022;2022-08-21T10:48:08;3.17;;;1.48;;
12141;SDS011;6134;59.284;18.022;2022-08-21T10:50:40;6.70;;;1.70;;
12141;SDS011;6134;59.284;18.022;2022-08-21T10:53:19;3.22;;;1.60;;
12141;SDS011;6134;59.284;18.022;2022-08-21T10:55:51;3.30;;;1.48;;
12141;SDS011;6134;59.284;18.022;2022-08-21T10:58:22;3.95;;;1.63;;
12141;SDS011;6134;59.284;18.022;2022-08-21T11:00:53;3.97;;;1.90;;
12141;SDS011;6134;59.284;18.022;2022-08-21T11:03:25;4.75;;;1.88;;
12141;SDS011;6134;59.284;18.022;2022-08-21T11:05:57;3.33;;;1.70;;
12141;SDS011;6134;59.284;18.022;2022-08-21T11:08:29;6.47;;;1.90;;
12141;SDS011;6134;59.284;18.022;2022-08-21T11:11:01;5.03;;;1.45;;
12141;SDS011;6134;59.284;18.022;2022-08-21T11:13:35;5.57;;;1.80;;
12141;SDS011;6134;59.284;18.022;2022-08-21T11:16:07;2.28;;;1.40;;
12141;SDS011;6134;59.284;18.022;2022-08-21T11:18:38;2.80;;;1.67;;
12141;SDS011;6134;59.284;18.022;2022-08-21T11:21:10;3.25;;;1.40;;
12141;SDS011;6134;59.284;18.022;2022-08-21T11:23:45;5.60;;;1.70;;
12141;SDS011;6134;59.284;18.022;2022-08-21T11:26:17;4.13;;;1.55;;
12141;SDS011;6134;59.284;18.022;2022-08-21T11:28:48;3.78;;;1.55;;
12141;SDS011;6134;59.284;18.022;2022-08-21T11:31:29;4.25;;;2.15;;
12141;SDS011;6134;59.284;18.022;2022-08-21T11:34:05;3.33;;;1.85;;
12141;SDS011;6134;59.284;18.022;2022-08-21T11:36:38;8.23;;;1.92;;
12141;SDS011;6134;59.284;18.022;2022-08-21T11:39:15;2.13;;;1.50;;
12141;SDS011;6134;59.284;18.022;2022-08-21T11:41:46;4.32;;;1.77;;
12141;SDS011;6134;59.284;18.022;2022-08-21T11:44:17;2.13;;;1.33;;
12141;SDS011;6134;59.284;18.022;2022-08-21T11:46:48;2.60;;;1.27;;
12141;SDS011;6134;59.284;18.022;2022-08-21T11:49:21;3.63;;;1.55;;
12141;SDS011;6134;59.284;18.022;2022-08-21T11:52:04;3.28;;;1.67;;
12141;SDS011;6134;59.284;18.022;2022-08-21T11:54:38;2.63;;;1.30;;
12141;SDS011;6134;59.284;18.022;2022-08-21T11:57:13;5.00;;;1.50;;
12141;SDS011;6134;59.284;18.022;2022-08-21T11:59:44;4.85;;;2.28;;
12141;SDS011;6134;59.284;18.022;2022-08-21T12:02:18;4.53;;;2.22;;
12141;SDS011;6134;59.284;18.022;2022-08-21T12:04:50;6.00;;;1.80;;
12141;SDS011;6134;59.284;18.022;2022-08-21T12:07:33;5.22;;;1.67;;
12141;SDS011;6134;59.284;18.022;2022-08-21T12:10:06;3.30;;;1.50;;
12141;SDS011;6134;59.284;18.022;2022-08-21T12:12:35;2.10;;;1.30;;
12141;SDS011;6134;59.284;18.022;2022-08-21T12:15:15;5.95;;;1.92;;
12141;SDS011;6134;59.284;18.022;2022-08-21T12:17:54;4.05;;;1.33;;
12141;SDS011;6134;59.284;18.022;2022-08-21T12:20:26;4.25;;;1.80;;
12141;SDS011;6134;59.284;18.022;2022-08-21T12:23:03;2.70;;;1.63;;
12141;SDS011;6134;59.284;18.022;2022-08-21T12:25:40;3.50;;;1.63;;
12141;SDS011;6134;59.284;18.022;2022-08-21T12:28:11;3.53;;;1.60;;
12141;SDS011;6134;59.284;18.022;2022-08-21T12:30:41;4.30;;;1.40;;
12141;SDS011;6134;59.284;18.022;2022-08-21T12:33:19;3.47;;;1.70;;
12141;SDS011;6134;59.284;18.022;2022-08-21T12:35:48;2.25;;;1.20;;
12141;SDS011;6134;59.284;18.022;2022-08-21T12:38:18;3.35;;;1.65;;
12141;SDS011;6134;59.284;18.022;2022-08-21T12:40:50;1.70;;;1.13;;
12141;SDS011;6134;59.284;18.022;2022-08-21T12:43:20;2.80;;;1.42;;
12141;SDS011;6134;59.284;18.022;2022-08-21T12:45:51;2.00;;;1.15;;
12141;SDS011;6134;59.284;18.022;2022-08-21T12:48:21;2.78;;;1.38;;
12141;SDS011;6134;59.284;18.022;2022-08-21T12:50:51;2.08;;;1.10;;
12141;SDS011;6134;59.284;18.022;2022-08-21T12:53:23;2.58;;;1.20;;
12141;SDS011;6134;59.284;18.022;2022-08-21T12:55:54;2.60;;;1.27;;
12141;SDS011;6134;59.284;18.022;2022-08-21T12:58:27;1.63;;;1.05;;
12141;SDS011;6134;59.284;18.022;2022-08-21T13:01:00;2.40;;;1.20;;
12141;SDS011;6134;59.284;18.022;2022-08-21T13:03:29;1.73;;;1.00;;
12141;SDS011;6134;59.284;18.022;2022-08-21T13:05:58;1.52;;;0.93;;
12141;SDS011;6134;59.284;18.022;2022-08-21T13:08:26;3.15;;;1.13;;
12141;SDS011;6134;59.284;18.022;2022-08-21T13:10:59;2.55;;;1.10;;
12141;SDS011;6134;59.284;18.022;2022-08-21T13:13:40;2.10;;;1.27;;
12141;SDS011;6134;59.284;18.022;2022-08-21T13:16:18;2.50;;;0.93;;
12141;SDS011;6134;59.284;18.022;2022-08-21T13:18:55;3.50;;;1.30;;
12141;SDS011;6134;59.284;18.022;2022-08-21T13:21:27;1.75;;;1.00;;
12141;SDS011;6134;59.284;18.022;2022-08-21T13:24:06;1.85;;;1.00;;
12141;SDS011;6134;59.284;18.022;2022-08-21T13:26:58;2.58;;;1.08;;
12141;SDS011;6134;59.284;18.022;2022-08-21T13:29:28;2.10;;;1.20;;
12141;SDS011;6134;59.284;18.022;2022-08-21T13:31:57;3.70;;;1.10;;
12141;SDS011;6134;59.284;18.022;2022-08-21T13:34:28;1.73;;;1.08;;
12141;SDS011;6134;59.284;18.022;2022-08-21T13:36:58;2.10;;;1.00;;
12141;SDS011;6134;59.284;18.022;2022-08-21T13:39:27;1.98;;;1.10;;
12141;SDS011;6134;59.284;18.022;2022-08-21T13:41:58;1.80;;;1.00;;
12141;SDS011;6134;59.284;18.022;2022-08-21T13:44:32;2.03;;;1.00;;
12141;SDS011;6134;59.284;18.022;2022-08-21T13:47:02;2.08;;;1.00;;
12141;SDS011;6134;59.284;18.022;2022-08-21T13:49:32;1.17;;;1.08;;
12141;SDS011;6134;59.284;18.022;2022-08-21T13:52:00;2.22;;;1.10;;
12141;SDS011;6134;59.284;18.022;2022-08-21T13:54:34;3.75;;;1.20;;
12141;SDS011;6134;59.284;18.022;2022-08-21T13:57:04;1.55;;;1.20;;
12141;SDS011;6134;59.284;18.022;2022-08-21T13:59:43;0.90;;;0.90;;
12141;SDS011;6134;59.284;18.022;2022-08-21T14:02:16;2.63;;;1.20;;
12141;SDS011;6134;59.284;18.022;2022-08-21T14:04:50;2.08;;;1.20;;
12141;SDS011;6134;59.284;18.022;2022-08-21T14:07:19;1.85;;;1.17;;
12141;SDS011;6134;59.284;18.022;2022-08-21T14:09:49;2.17;;;1.10;;
12141;SDS011;6134;59.284;18.022;2022-08-21T14:12:19;2.55;;;1.10;;
12141;SDS011;6134;59.284;18.022;2022-08-21T14:14:52;2.60;;;1.10;;
12141;SDS011;6134;59.284;18.022;2022-08-21T14:17:26;1.88;;;1.08;;
12141;SDS011;6134;59.284;18.022;2022-08-21T14:19:59;1.55;;;1.15;;
12141;SDS011;6134;59.284;18.022;2022-08-21T14:22:29;2.45;;;1.17;;
12141;SDS011;6134;59.284;18.022;2022-08-21T14:24:59;1.17;;;0.98;;
12141;SDS011;6134;59.284;18.022;2022-08-21T14:27:30;1.45;;;1.23;;
12141;SDS011;6134;59.284;18.022;2022-08-21T14:29:59;1.38;;;1.00;;
12141;SDS011;6134;59.284;18.022;2022-08-21T14:32:28;4.47;;;1.23;;
12141;SDS011;6134;59.284;18.022;2022-08-21T14:34:58;3.85;;;1.30;;
12141;SDS011;6134;59.284;18.022;2022-08-21T14:37:27;1.40;;;1.15;;
12141;SDS011;6134;59.284;18.022;2022-08-21T14:39:55;2.92;;;1.20;;
12141;SDS011;6134;59.284;18.022;2022-08-21T14:42:24;1.67;;;1.10;;
12141;SDS011;6134;59.284;18.022;2022-08-21T14:44:54;1.75;;;1.20;;
12141;SDS011;6134;59.284;18.022;2022-08-21T14:47:25;1.95;;;1.15;;
12141;SDS011;6134;59.284;18.022;2022-08-21T14:49:54;2.00;;;1.30;;
12141;SDS011;6134;59.284;18.022;2022-08-21T14:52:23;1.60;;;1.30;;
12141;SDS011;6134;59.284;18.022;2022-08-21T14:54:52;1.02;;;0.90;;
12141;SDS011;6134;59.284;18.022;2022-08-21T14:57:20;1.80;;;1.40;;
12141;SDS011;6134;59.284;18.022;2022-08-21T14:59:48;2.08;;;1.20;;
12141;SDS011;6134;59.284;18.022;2022-08-21T15:02:18;1.27;;;1.00;;
12141;SDS011;6134;59.284;18.022;2022-08-21T15:04:47;3.10;;;1.20;;
12141;SDS011;6134;59.284;18.022;2022-08-21T15:07:15;2.22;;;1.48;;
12141;SDS011;6134;59.284;18.022;2022-08-21T15:09:44;2.13;;;1.20;;